createdAt,value
2022-12-01T00:01:47.596Z,30.97
2022-12-01T00:04:16.932Z,31.50
2022-12-01T00:06:46.165Z,32.73
2022-12-01T00:09:34.045Z,31.55
2022-12-01T00:12:03.350Z,32.67
2022-12-01T00:14:32.598Z,34.05
2022-12-01T00:17:02.070Z,32.83
2022-12-01T00:19:31.354Z,34.23
2022-12-01T00:22:00.740Z,32.53
2022-12-01T00:24:29.965Z,33.30
2022-12-01T00:26:59.204Z,32.17
2022-12-01T00:29:28.508Z,31.50
2022-12-01T00:31:57.941Z,33.23
2022-12-01T00:34:28.113Z,32.93
2022-12-01T00:36:57.410Z,32.63
2022-12-01T00:39:26.926Z,33.45
2022-12-01T00:41:56.339Z,34.05
2022-12-01T00:44:25.798Z,33.20
2022-12-01T00:46:55.234Z,33.40
2022-12-01T00:49:24.713Z,33.38
2022-12-01T00:51:54.021Z,33.80
2022-12-01T00:54:23.302Z,33.98
2022-12-01T00:56:52.737Z,35.58
2022-12-01T00:59:22.123Z,35.45
2022-12-01T01:01:52.651Z,35.70
2022-12-01T01:04:22.360Z,35.88
2022-12-01T01:06:52.569Z,36.40
2022-12-01T01:09:21.815Z,35.98
2022-12-01T01:11:51.069Z,36.58
2022-12-01T01:14:20.940Z,37.17
2022-12-01T01:16:50.419Z,36.63
2022-12-01T01:19:19.681Z,34.43
2022-12-01T01:21:48.910Z,36.10
2022-12-01T01:24:18.301Z,35.50
2022-12-01T01:26:47.526Z,35.70
2022-12-01T01:29:17.030Z,36.40
2022-12-01T01:31:46.253Z,34.38
2022-12-01T01:34:15.626Z,36.90
2022-12-01T01:36:44.997Z,35.75
2022-12-01T01:39:14.290Z,36.23
2022-12-01T01:41:43.876Z,36.30
2022-12-01T01:44:42.508Z,35.85
2022-12-01T01:47:11.991Z,35.55
2022-12-01T01:49:42.671Z,37.23
2022-12-01T01:52:11.903Z,36.80
2022-12-01T01:54:43.683Z,37.33
2022-12-01T01:57:15.311Z,36.75
2022-12-01T01:59:48.374Z,37.70
2022-12-01T02:02:18.169Z,38.35
2022-12-01T02:04:49.974Z,39.35
2022-12-01T02:07:20.733Z,38.95
2022-12-01T02:09:50.529Z,39.30
2022-12-01T02:12:28.759Z,38.45
2022-12-01T02:15:20.823Z,39.70
2022-12-01T02:18:01.918Z,38.50
2022-12-01T02:20:49.728Z,39.30
2022-12-01T02:23:33.943Z,40.23
2022-12-01T02:26:21.234Z,41.85
2022-12-01T02:28:59.548Z,41.35
2022-12-01T02:31:46.662Z,41.88
2022-12-01T02:34:46.088Z,41.18
2022-12-01T02:37:21.578Z,41.28
2022-12-01T02:40:12.533Z,43.35
2022-12-01T02:42:52.043Z,43.02
2022-12-01T02:45:27.498Z,42.53
2022-12-01T02:48:00.441Z,43.85
2022-12-01T02:50:31.522Z,43.68
2022-12-01T02:53:02.643Z,46.50
2022-12-01T02:55:32.065Z,47.48
2022-12-01T02:58:01.487Z,45.03
2022-12-01T03:00:32.062Z,48.28
2022-12-01T03:03:10.427Z,45.90
2022-12-01T03:05:42.813Z,46.92
2022-12-01T03:08:31.540Z,47.67
2022-12-01T03:11:02.730Z,49.42
2022-12-01T03:14:10.267Z,48.65
2022-12-01T03:16:48.896Z,48.78
2022-12-01T03:19:30.024Z,48.33
2022-12-01T03:22:11.651Z,47.25
2022-12-01T03:24:43.408Z,48.00
2022-12-01T03:27:13.873Z,48.75
2022-12-01T03:29:45.474Z,45.88
2022-12-01T03:32:21.237Z,46.75
2022-12-01T03:35:10.823Z,47.38
2022-12-01T03:37:46.318Z,47.38
2022-12-01T03:40:18.354Z,47.27
2022-12-01T03:42:59.308Z,47.70
2022-12-01T03:45:48.345Z,45.30
2022-12-01T03:48:18.021Z,46.15
2022-12-01T03:50:56.136Z,47.53
2022-12-01T03:53:31.788Z,47.93
2022-12-01T03:56:03.666Z,47.95
2022-12-01T03:58:41.696Z,48.25
2022-12-01T04:01:11.373Z,45.45
2022-12-01T04:03:40.749Z,48.25
2022-12-01T04:06:10.036Z,48.02
2022-12-01T04:08:40.009Z,46.25
2022-12-01T04:11:32.387Z,45.98
2022-12-01T04:13:58.626Z,46.68
2022-12-01T04:16:27.935Z,45.80
2022-12-01T04:18:57.446Z,46.25
2022-12-01T04:21:26.657Z,46.42
2022-12-01T04:24:01.970Z,45.38
2022-12-01T04:26:34.015Z,46.73
2022-12-01T04:29:05.329Z,46.37
2022-12-01T04:31:35.243Z,44.85
2022-12-01T04:34:04.591Z,46.28
2022-12-01T04:36:35.453Z,46.00
2022-12-01T04:39:05.207Z,46.80
2022-12-01T04:41:34.482Z,48.83
2022-12-01T04:44:03.704Z,47.08
2022-12-01T04:46:33.019Z,47.10
2022-12-01T04:49:02.229Z,46.68
2022-12-01T04:51:32.098Z,46.75
2022-12-01T04:54:03.112Z,47.10
2022-12-01T04:56:33.644Z,46.00
2022-12-01T04:59:02.913Z,45.75
2022-12-01T05:01:32.368Z,44.58
2022-12-01T05:04:01.858Z,46.65
2022-12-01T05:06:31.338Z,45.73
2022-12-01T05:09:02.464Z,46.48
2022-12-01T05:11:32.993Z,45.28
2022-12-01T05:14:02.300Z,45.33
2022-12-01T05:16:33.132Z,45.03
2022-12-01T05:19:16.036Z,45.08
2022-12-01T05:21:47.479Z,42.90
2022-12-01T05:24:17.623Z,44.80
2022-12-01T05:26:46.848Z,44.38
2022-12-01T05:29:16.343Z,43.78
2022-12-01T05:31:47.298Z,43.30
2022-12-01T05:34:16.661Z,44.00
2022-12-01T05:36:45.894Z,42.95
2022-12-01T05:39:15.303Z,42.85
2022-12-01T05:41:44.504Z,42.73
2022-12-01T05:44:13.758Z,44.40
2022-12-01T05:46:43.224Z,43.20
2022-12-01T05:49:12.598Z,44.38
2022-12-01T05:51:43.365Z,45.12
2022-12-01T05:54:12.605Z,42.03
2022-12-01T05:56:41.901Z,42.15
2022-12-01T05:59:11.135Z,42.62
2022-12-01T06:01:40.397Z,43.42
2022-12-01T06:04:09.752Z,42.90
2022-12-01T06:06:39.233Z,41.48
2022-12-01T06:09:09.094Z,42.35
2022-12-01T06:11:38.489Z,42.23
2022-12-01T06:14:07.751Z,42.70
2022-12-01T06:16:37.309Z,41.45
2022-12-01T06:19:06.605Z,42.43
2022-12-01T06:21:35.949Z,41.83
2022-12-01T06:24:05.407Z,41.77
2022-12-01T06:26:34.643Z,42.70
2022-12-01T06:29:03.884Z,41.48
2022-12-01T06:31:33.183Z,40.60
2022-12-01T06:34:02.420Z,41.58
2022-12-01T06:36:31.655Z,40.80
2022-12-01T06:39:00.986Z,41.40
2022-12-01T06:41:30.480Z,41.25
2022-12-01T06:43:59.744Z,40.52
2022-12-01T06:46:29.383Z,40.52
2022-12-01T06:48:58.757Z,39.90
2022-12-01T06:51:28.633Z,39.33
2022-12-01T06:54:03.797Z,39.55
2022-12-01T06:56:29.614Z,40.20
2022-12-01T06:58:59.254Z,41.08
2022-12-01T07:01:29.124Z,42.60
2022-12-01T07:03:58.469Z,42.30
2022-12-01T07:06:27.889Z,43.28
2022-12-01T07:08:58.784Z,43.98
2022-12-01T07:11:28.466Z,45.83
2022-12-01T07:13:57.889Z,44.75
2022-12-01T07:16:27.167Z,46.68
2022-12-01T07:18:56.605Z,46.88
2022-12-01T07:21:25.847Z,46.65
2022-12-01T07:23:56.025Z,45.30
2022-12-01T07:26:25.309Z,46.98
2022-12-01T07:28:54.792Z,46.65
2022-12-01T07:31:24.134Z,47.48
2022-12-01T07:33:54.019Z,47.45
2022-12-01T07:36:23.272Z,48.55
2022-12-01T07:38:52.536Z,48.75
2022-12-01T07:41:21.813Z,47.48
2022-12-01T07:43:52.240Z,49.83
2022-12-01T07:46:24.424Z,47.10
2022-12-01T07:48:55.131Z,47.10
2022-12-01T07:51:25.565Z,46.28
2022-12-01T07:53:55.984Z,45.83
2022-12-01T07:56:25.278Z,46.77
2022-12-01T07:58:54.663Z,48.42
2022-12-01T08:01:25.103Z,46.60
2022-12-01T08:03:57.000Z,46.65
2022-12-01T08:06:27.214Z,48.70
2022-12-01T08:08:57.013Z,51.25
2022-12-01T08:11:29.970Z,49.65
2022-12-01T08:13:59.621Z,50.45
2022-12-01T08:16:28.900Z,51.20
2022-12-01T08:18:58.151Z,51.20
2022-12-01T08:21:27.396Z,51.33
2022-12-01T08:23:57.980Z,50.28
2022-12-01T08:26:27.981Z,50.45
2022-12-01T08:28:58.307Z,51.28
2022-12-01T08:31:32.951Z,52.33
2022-12-01T08:34:04.223Z,50.05
2022-12-01T08:36:33.896Z,51.00
2022-12-01T08:39:03.378Z,51.25
2022-12-01T08:41:32.698Z,51.70
2022-12-01T08:44:02.145Z,51.77
2022-12-01T08:46:33.801Z,51.95
2022-12-01T08:49:04.727Z,52.60
2022-12-01T08:51:34.068Z,51.75
2022-12-01T08:54:03.736Z,50.48
2022-12-01T08:56:35.658Z,52.03
2022-12-01T08:59:05.415Z,52.00
2022-12-01T09:01:35.295Z,51.25
2022-12-01T09:04:09.797Z,50.15
2022-12-01T09:06:43.542Z,51.08
2022-12-01T09:09:16.554Z,49.80
2022-12-01T09:11:46.267Z,49.75
2022-12-01T09:14:18.177Z,49.45
2022-12-01T09:16:49.809Z,49.80
2022-12-01T09:19:24.548Z,49.93
2022-12-01T09:21:51.513Z,47.75
2022-12-01T09:24:21.008Z,48.05
2022-12-01T09:26:50.708Z,45.75
2022-12-01T09:29:20.294Z,46.68
2022-12-01T09:31:49.609Z,45.40
2022-12-01T09:34:20.652Z,44.98
2022-12-01T09:36:50.342Z,44.67
2022-12-01T09:39:21.160Z,43.40
2022-12-01T09:42:07.597Z,42.90
2022-12-01T09:44:37.193Z,42.53
2022-12-01T09:47:12.941Z,41.92
2022-12-01T09:50:03.774Z,40.20
2022-12-01T09:52:42.127Z,40.80
2022-12-01T09:55:16.311Z,38.80
2022-12-01T09:57:50.710Z,38.28
2022-12-01T10:00:26.225Z,35.95
2022-12-01T10:02:58.344Z,35.75
2022-12-01T10:05:30.461Z,35.60
2022-12-01T10:08:08.332Z,34.78
2022-12-01T10:10:49.104Z,33.95
2022-12-01T10:13:21.024Z,35.13
2022-12-01T10:15:59.641Z,34.10
2022-12-01T10:18:57.579Z,33.13
2022-12-01T10:21:48.543Z,32.38
2022-12-01T10:24:23.933Z,33.15
2022-12-01T10:26:56.568Z,33.53
2022-12-01T10:29:31.946Z,33.73
2022-12-01T10:32:21.877Z,34.73
2022-12-01T10:34:51.443Z,33.88
2022-12-01T10:37:26.315Z,34.33
2022-12-01T10:39:57.272Z,34.10
2022-12-01T10:42:37.859Z,32.45
2022-12-01T10:45:10.533Z,32.85
2022-12-01T10:50:10.917Z,32.17
2022-12-01T10:52:43.566Z,33.63
2022-12-01T10:57:58.929Z,34.30
2022-12-01T11:01:01.950Z,34.88
2022-12-01T11:03:03.067Z,34.73
2022-12-01T11:05:35.485Z,32.98
2022-12-01T11:08:04.902Z,33.53
2022-12-01T11:55:25.673Z,36.48
2022-12-01T11:57:58.122Z,37.58
2022-12-01T12:00:30.504Z,37.73
2022-12-01T12:03:21.749Z,37.75
2022-12-01T12:06:18.143Z,37.63
2022-12-01T12:09:02.110Z,37.48
2022-12-01T12:11:46.992Z,37.17
2022-12-01T12:14:22.607Z,37.73
2022-12-01T12:17:15.260Z,37.33
2022-12-01T12:20:09.677Z,36.70
2022-12-01T12:22:52.333Z,35.25
2022-12-01T12:25:28.433Z,36.17
2022-12-01T12:28:20.315Z,36.10
2022-12-01T12:31:05.029Z,35.38
2022-12-01T12:33:43.195Z,35.38
2022-12-01T12:36:38.294Z,35.20
2022-12-01T12:39:32.064Z,36.28
2022-12-01T12:42:03.861Z,36.17
2022-12-01T12:44:48.243Z,35.15
2022-12-01T12:47:23.476Z,35.48
2022-12-01T12:50:01.823Z,33.33
2022-12-01T12:52:36.507Z,34.88
2022-12-01T12:55:23.910Z,36.30
2022-12-01T12:57:59.158Z,34.65
2022-12-01T13:00:30.010Z,34.70
2022-12-01T13:03:34.968Z,34.13
2022-12-01T13:06:13.350Z,31.80
2022-12-01T13:08:54.969Z,33.73
2022-12-01T13:11:27.597Z,32.80
2022-12-01T13:16:33.478Z,33.65
2022-12-01T13:21:51.061Z,34.53
2022-12-01T13:24:24.201Z,34.23
2022-12-01T13:27:04.539Z,33.42
2022-12-01T13:29:46.114Z,32.88
2022-12-01T13:32:07.875Z,33.08
2022-12-01T13:34:42.380Z,34.20
2022-12-01T13:37:12.144Z,32.93
2022-12-01T13:39:42.747Z,33.18
2022-12-01T13:42:26.316Z,32.67
2022-12-01T13:45:01.181Z,32.00
2022-12-01T13:47:51.464Z,32.10
2022-12-01T13:50:46.815Z,32.70
2022-12-01T13:53:22.910Z,30.62
2022-12-01T13:56:19.808Z,32.55
2022-12-01T13:58:51.700Z,30.35
2022-12-01T14:01:24.346Z,32.23
2022-12-01T14:04:01.972Z,30.52
2022-12-01T14:06:42.212Z,29.40
2022-12-01T14:09:34.547Z,29.18
2022-12-01T14:12:06.873Z,30.35
2022-12-01T14:14:39.554Z,29.92
2022-12-01T14:19:53.371Z,30.65
2022-12-01T14:22:44.095Z,31.62
2022-12-01T14:25:27.031Z,30.70
2022-12-01T14:30:45.824Z,32.15
2022-12-01T14:33:46.700Z,32.15
2022-12-01T14:36:37.359Z,32.35
2022-12-01T14:39:16.052Z,31.82
2022-12-01T14:41:47.939Z,33.80
2022-12-01T14:44:26.701Z,32.13
2022-12-01T14:46:59.246Z,32.80
2022-12-01T14:52:07.931Z,31.25
2022-12-01T14:54:46.064Z,32.80
2022-12-01T14:57:17.961Z,32.88
2022-12-01T14:59:47.175Z,31.60
2022-12-01T15:02:16.673Z,32.28
2022-12-01T15:05:17.640Z,32.85
2022-12-01T15:08:06.721Z,33.80
2022-12-01T15:10:36.927Z,34.35
2022-12-01T15:13:30.867Z,33.73
2022-12-01T15:16:03.114Z,31.90
2022-12-01T15:18:39.905Z,33.18
2022-12-01T15:21:21.211Z,33.33
2022-12-01T15:24:22.115Z,32.63
2022-12-01T15:27:02.088Z,32.70
2022-12-01T15:29:36.504Z,32.25
2022-12-01T15:32:08.279Z,33.15
2022-12-01T15:34:46.310Z,33.98
2022-12-01T15:37:21.115Z,35.92
2022-12-01T15:40:47.797Z,34.08
2022-12-01T15:42:38.237Z,36.15
2022-12-01T15:45:22.070Z,34.13
2022-12-01T15:47:54.530Z,34.15
2022-12-01T15:53:04.977Z,34.60
2022-12-01T15:55:38.539Z,33.70
2022-12-01T15:58:09.098Z,34.78
2022-12-01T16:00:38.485Z,32.50
2022-12-01T16:03:12.189Z,32.75
2022-12-01T16:05:44.257Z,34.75
2022-12-01T16:08:22.396Z,33.17
2022-12-01T16:11:16.025Z,35.65
2022-12-01T16:13:51.222Z,35.95
2022-12-01T16:16:41.271Z,33.83
2022-12-01T16:19:14.267Z,34.90
2022-12-01T16:21:49.744Z,35.60
2022-12-01T16:24:24.782Z,37.15
2022-12-01T16:26:56.567Z,37.05
2022-12-01T16:29:27.590Z,36.85
2022-12-01T16:32:19.230Z,33.73
2022-12-01T16:34:46.024Z,36.40
2022-12-01T16:37:01.137Z,36.30
2022-12-01T16:39:30.434Z,34.45
2022-12-01T16:42:01.449Z,36.55
2022-12-01T16:44:30.702Z,38.02
2022-12-01T16:47:00.001Z,37.05
2022-12-01T16:49:29.274Z,39.33
2022-12-01T16:52:01.245Z,39.05
2022-12-01T16:54:29.818Z,40.73
2022-12-01T16:56:59.173Z,39.65
2022-12-01T16:59:28.605Z,39.48
2022-12-01T17:01:58.062Z,39.58
2022-12-01T17:04:27.279Z,39.55
2022-12-01T17:06:56.994Z,40.50
2022-12-01T17:09:26.240Z,41.70
2022-12-01T17:11:56.514Z,42.67
2022-12-01T17:14:26.396Z,42.00
2022-12-01T17:17:00.222Z,41.77
2022-12-01T17:19:26.755Z,42.55
2022-12-01T17:21:57.198Z,42.80
2022-12-01T17:24:26.433Z,42.67
2022-12-01T17:26:55.946Z,41.23
2022-12-01T17:29:26.272Z,44.70
2022-12-01T17:31:55.485Z,45.12
2022-12-01T17:34:24.954Z,42.93
2022-12-01T17:36:54.627Z,43.98
2022-12-01T17:39:24.336Z,45.23
2022-12-01T17:41:55.691Z,43.92
2022-12-01T17:44:25.202Z,45.58
2022-12-01T17:46:54.556Z,42.62
2022-12-01T17:49:24.326Z,45.48
2022-12-01T17:51:53.590Z,45.45
2022-12-01T17:54:22.995Z,45.03
2022-12-01T17:56:52.238Z,44.13
2022-12-01T17:59:21.817Z,46.23
2022-12-01T18:01:51.313Z,45.73
2022-12-01T18:04:20.733Z,46.02
2022-12-01T18:06:54.096Z,46.10
2022-12-01T18:09:21.218Z,44.15
2022-12-01T18:11:50.850Z,45.12
2022-12-01T18:14:20.327Z,44.65
2022-12-01T18:16:49.938Z,45.73
2022-12-01T18:19:19.757Z,45.50
2022-12-01T18:21:50.528Z,46.58
2022-12-01T18:24:19.941Z,45.52
2022-12-01T18:26:49.944Z,48.38
2022-12-01T18:29:28.095Z,48.58
2022-12-01T18:31:58.814Z,47.53
2022-12-01T18:34:32.327Z,46.25
2022-12-01T18:37:03.124Z,45.60
2022-12-01T18:39:32.830Z,46.30
2022-12-01T18:42:02.519Z,45.20
2022-12-01T18:44:32.014Z,46.60
2022-12-01T18:47:03.017Z,46.75
2022-12-01T18:49:32.350Z,47.88
2022-12-01T18:52:03.613Z,48.15
2022-12-01T18:54:32.952Z,47.90
2022-12-01T18:57:02.292Z,46.25
2022-12-01T18:59:31.773Z,46.88
2022-12-01T19:02:02.391Z,46.73
2022-12-01T19:04:31.693Z,47.48
2022-12-01T19:07:01.177Z,49.03
2022-12-01T19:09:30.443Z,48.90
2022-12-01T19:12:00.702Z,49.25
2022-12-01T19:14:30.269Z,48.75
2022-12-01T19:17:00.821Z,48.65
2022-12-01T19:19:35.850Z,47.20
2022-12-01T19:22:01.229Z,48.28
2022-12-01T19:24:30.516Z,49.08
2022-12-01T19:27:00.076Z,49.80
2022-12-01T19:29:29.288Z,49.63
2022-12-01T19:31:59.013Z,48.52
2022-12-01T19:34:28.334Z,48.90
2022-12-01T19:36:57.915Z,49.18
2022-12-01T19:39:27.339Z,48.70
2022-12-01T19:41:58.268Z,48.42
2022-12-01T19:44:27.691Z,47.23
2022-12-01T19:46:57.277Z,49.88
2022-12-01T19:49:26.712Z,48.02
2022-12-01T19:51:56.440Z,48.70
2022-12-01T19:54:28.434Z,49.13
2022-12-01T19:56:57.878Z,48.73
2022-12-01T19:59:27.293Z,48.42
2022-12-01T20:01:56.694Z,49.73
2022-12-01T20:04:26.096Z,47.98
2022-12-01T20:06:55.502Z,47.90
2022-12-01T20:09:24.805Z,49.05
2022-12-01T20:11:55.121Z,48.02
2022-12-01T20:14:24.579Z,47.65
2022-12-01T20:16:58.898Z,47.90
2022-12-01T20:19:28.233Z,50.75
2022-12-01T20:21:57.536Z,55.30
2022-12-01T20:24:26.767Z,56.15
2022-12-01T20:26:58.871Z,56.18
2022-12-01T20:29:29.992Z,55.05
2022-12-01T20:32:01.080Z,55.83
2022-12-01T20:34:36.137Z,55.38
2022-12-01T20:37:05.927Z,53.95
2022-12-01T20:39:36.919Z,54.42
2022-12-01T20:42:06.768Z,53.63
2022-12-01T20:44:36.858Z,52.62
2022-12-01T20:47:06.346Z,53.05
2022-12-01T20:49:36.114Z,51.40
2022-12-01T20:52:05.721Z,52.88
2022-12-01T20:54:35.030Z,53.40
2022-12-01T20:57:04.548Z,54.48
2022-12-01T20:59:33.998Z,51.58
2022-12-01T21:02:03.378Z,53.42
2022-12-01T21:04:32.925Z,52.88
2022-12-01T21:07:02.133Z,52.62
2022-12-01T21:09:31.887Z,51.75
2022-12-01T21:12:20.452Z,52.43
2022-12-01T21:14:58.979Z,50.03
2022-12-01T21:17:36.714Z,50.88
2022-12-01T21:20:27.249Z,50.70
2022-12-01T21:22:59.662Z,50.60
2022-12-01T21:25:29.325Z,51.55
2022-12-01T21:28:01.350Z,50.12
2022-12-01T21:30:31.318Z,51.10
2022-12-01T21:33:03.762Z,51.42
2022-12-01T21:35:33.232Z,50.65
2022-12-01T21:38:05.277Z,50.65
2022-12-01T21:40:35.096Z,50.83
2022-12-01T21:43:23.427Z,49.90
2022-12-01T21:45:58.618Z,52.00
2022-12-01T21:48:31.213Z,50.90
2022-12-01T21:53:35.903Z,49.77
2022-12-01T21:56:05.338Z,50.78
2022-12-01T21:58:37.406Z,50.98
2022-12-01T22:01:12.799Z,48.75
2022-12-01T22:03:46.679Z,48.78
2022-12-01T22:06:31.751Z,49.00
2022-12-01T22:08:56.925Z,50.43
2022-12-01T22:11:28.661Z,49.73
2022-12-01T22:14:13.538Z,50.55
2022-12-01T22:16:52.218Z,48.85
2022-12-01T22:19:35.584Z,49.90
2022-12-01T22:22:08.146Z,49.55
2022-12-01T22:27:38.503Z,47.67
2022-12-01T22:30:10.893Z,47.78
2022-12-01T22:32:52.935Z,49.03
2022-12-01T22:35:27.901Z,48.58
2022-12-01T22:38:30.901Z,49.48
2022-12-01T22:41:05.086Z,48.63
2022-12-01T22:43:45.750Z,49.30
2022-12-01T22:46:40.743Z,47.80
2022-12-01T22:49:19.706Z,48.55
2022-12-01T22:51:57.984Z,46.37
2022-12-01T22:54:33.021Z,47.25
2022-12-01T22:57:32.439Z,46.18
2022-12-01T23:00:19.058Z,47.78
2022-12-01T23:02:52.117Z,48.10
2022-12-01T23:05:31.668Z,48.25
2022-12-01T23:08:01.708Z,47.10
2022-12-01T23:10:32.631Z,48.73
2022-12-01T23:13:06.307Z,46.30
2022-12-01T23:15:40.755Z,45.58
2022-12-01T23:18:15.870Z,48.10
2022-12-01T23:20:47.775Z,46.02
2022-12-01T23:23:19.859Z,46.98
2022-12-01T23:25:50.768Z,48.13
2022-12-01T23:28:20.592Z,47.10
2022-12-01T23:30:52.459Z,47.67
2022-12-01T23:33:27.659Z,46.30
2022-12-01T23:36:08.635Z,46.63
2022-12-01T23:38:42.879Z,47.40
2022-12-01T23:41:15.426Z,47.88
2022-12-01T23:43:46.044Z,48.08
2022-12-01T23:46:23.777Z,47.33
2022-12-01T23:48:55.549Z,47.03
2022-12-01T23:51:33.616Z,47.27
2022-12-01T23:54:06.034Z,49.33
2022-12-01T23:56:37.103Z,48.00
2022-12-01T23:59:09.340Z,48.28
